Time;durP1;ratioP1;P1;durP2;ratioP2;P2;SDS_P1;SDS_P2;PMS_P1;PMS_P2;Temp;Humidity;BMP_temperature;BMP_pressure;BME280_temperature;BME280_humidity;BME280_pressure;Samples;Min_cycle;Max_cycle;Signal;HPM_P1;HPM_P2
2022/03/11 00:00:16;;;;;;;1.95;0.70;;;;;;;;;;4213481;28;20518;-69
2022/03/11 00:02:21;;;;;;;2.70;0.90;;;;;;;;;;4213544;28;20044;-69
2022/03/11 00:04:22;;;;;;;0.82;0.82;;;;;;;;;;4212311;28;20048;-69
2022/03/11 00:06:23;;;;;;;1.35;0.82;;;;;;;;;;4213638;28;20422;-69
2022/03/11 00:08:24;;;;;;;3.28;0.80;;;;;;;;;;4211971;28;20090;-69
2022/03/11 00:10:25;;;;;;;1.60;0.82;;;;;;;;;;4213644;28;20051;-69
2022/03/11 00:12:26;;;;;;;1.02;0.70;;;;;;;;;;4212364;28;20689;-69
2022/03/11 00:14:27;;;;;;;1.25;0.60;;;;;;;;;;4213381;28;20496;-69
2022/03/11 00:16:27;;;;;;;1.15;0.68;;;;;;;;;;4212377;28;20083;-70
2022/03/11 00:18:28;;;;;;;1.33;0.80;;;;;;;;;;4205563;28;20113;-70
2022/03/11 00:20:31;;;;;;;0.93;0.68;;;;;;;;;;4196696;28;20120;-69
2022/03/11 00:22:34;;;;;;;1.00;0.52;;;;;;;;;;4196471;28;20052;-69
2022/03/11 00:24:35;;;;;;;1.20;0.77;;;;;;;;;;4196649;28;20049;-70
2022/03/11 00:26:35;;;;;;;1.80;0.70;;;;;;;;;;4196298;28;20056;-69
2022/03/11 00:28:37;;;;;;;1.52;0.70;;;;;;;;;;4196320;28;20190;-70
2022/03/11 00:30:38;;;;;;;1.10;0.60;;;;;;;;;;4178615;28;20510;-70
2022/03/11 00:32:40;;;;;;;0.85;0.70;;;;;;;;;;4178054;28;20095;-70
2022/03/11 00:34:41;;;;;;;1.67;0.80;;;;;;;;;;4195342;28;20049;-69
2022/03/11 00:36:44;;;;;;;2.40;0.70;;;;;;;;;;4199338;28;20104;-69
2022/03/11 00:38:45;;;;;;;0.70;0.50;;;;;;;;;;4213086;28;20445;-68
2022/03/11 00:40:46;;;;;;;2.30;0.68;;;;;;;;;;4213095;28;20101;-69
2022/03/11 00:42:47;;;;;;;0.82;0.70;;;;;;;;;;4213016;28;20077;-69
2022/03/11 00:44:48;;;;;;;1.52;0.63;;;;;;;;;;4211460;28;20455;-69
2022/03/11 00:46:49;;;;;;;1.20;0.70;;;;;;;;;;4212359;28;20062;-68
2022/03/11 00:48:50;;;;;;;0.90;0.77;;;;;;;;;;4212738;28;20077;-69
2022/03/11 00:50:51;;;;;;;1.67;0.68;;;;;;;;;;4211429;28;20452;-67
2022/03/11 00:52:52;;;;;;;1.15;0.93;;;;;;;;;;4212546;28;20388;-70
2022/03/11 00:54:53;;;;;;;1.30;0.70;;;;;;;;;;4211166;28;20400;-69
2022/03/11 00:56:54;;;;;;;0.98;0.63;;;;;;;;;;4212586;28;20104;-70
2022/03/11 00:58:55;;;;;;;1.13;0.70;;;;;;;;;;4212737;28;20052;-70
2022/03/11 01:00:56;;;;;;;1.02;0.60;;;;;;;;;;4194684;28;20293;-70
2022/03/11 01:02:57;;;;;;;0.60;0.60;;;;;;;;;;4211054;28;20035;-71
2022/03/11 01:04:57;;;;;;;0.80;0.55;;;;;;;;;;4212574;28;20413;-70
2022/03/11 01:06:59;;;;;;;1.08;0.70;;;;;;;;;;4212801;28;20060;-69
2022/03/11 01:08:59;;;;;;;2.03;0.65;;;;;;;;;;4211425;28;20052;-70
2022/03/11 01:11:00;;;;;;;1.25;0.85;;;;;;;;;;4201393;28;20076;-69
2022/03/11 01:13:01;;;;;;;1.10;0.70;;;;;;;;;;4212558;28;20131;-70
2022/03/11 01:15:03;;;;;;;0.60;0.60;;;;;;;;;;4194267;28;20102;-70
2022/03/11 01:17:04;;;;;;;0.95;0.57;;;;;;;;;;4212112;28;20052;-70
2022/03/11 01:19:05;;;;;;;1.23;0.60;;;;;;;;;;4212611;28;20128;-71
2022/03/11 01:21:06;;;;;;;1.02;0.73;;;;;;;;;;4212316;28;20052;-70
2022/03/11 01:23:10;;;;;;;1.10;0.65;;;;;;;;;;4212244;28;20384;-71
2022/03/11 01:25:11;;;;;;;1.60;0.90;;;;;;;;;;4212715;28;20105;-69
2022/03/11 01:27:11;;;;;;;1.30;0.65;;;;;;;;;;4212456;28;20093;-71
2022/03/11 01:29:12;;;;;;;1.15;0.52;;;;;;;;;;4212598;28;20087;-70
2022/03/11 01:31:16;;;;;;;1.08;0.50;;;;;;;;;;4212199;28;20048;-70
2022/03/11 01:33:17;;;;;;;1.08;0.50;;;;;;;;;;4211852;28;20044;-70
2022/03/11 01:35:18;;;;;;;1.17;0.70;;;;;;;;;;4194366;28;20551;-68
2022/03/11 01:37:19;;;;;;;1.10;0.60;;;;;;;;;;4212631;28;20052;-70
2022/03/11 01:39:20;;;;;;;0.63;0.60;;;;;;;;;;4194410;28;20152;-68
2022/03/11 01:41:21;;;;;;;0.68;0.60;;;;;;;;;;4193358;28;20040;-70
2022/03/11 01:43:22;;;;;;;0.50;0.50;;;;;;;;;;4195604;28;20453;-71
2022/03/11 01:45:22;;;;;;;1.20;0.45;;;;;;;;;;4196086;28;20522;-70
2022/03/11 01:47:23;;;;;;;1.70;0.70;;;;;;;;;;4182871;28;20129;-69
2022/03/11 01:49:25;;;;;;;0.82;0.47;;;;;;;;;;4163419;28;20433;-70
2022/03/11 01:51:27;;;;;;;2.00;0.60;;;;;;;;;;4214422;28;20078;-71
2022/03/11 01:53:28;;;;;;;0.50;0.50;;;;;;;;;;4214094;28;20063;-70
2022/03/11 01:55:29;;;;;;;0.60;0.60;;;;;;;;;;4215315;28;20048;-69
2022/03/11 01:57:33;;;;;;;0.60;0.50;;;;;;;;;;4214997;28;20192;-70
2022/03/11 01:59:34;;;;;;;0.75;0.50;;;;;;;;;;4215262;28;20093;-70
2022/03/11 02:01:35;;;;;;;0.70;0.50;;;;;;;;;;4213869;28;20096;-70
2022/03/11 02:03:36;;;;;;;0.75;0.57;;;;;;;;;;4214804;28;20219;-70
2022/03/11 02:05:37;;;;;;;0.57;0.50;;;;;;;;;;4214004;28;20056;-70
2022/03/11 02:07:38;;;;;;;0.65;0.40;;;;;;;;;;4215539;28;20100;-69
2022/03/11 02:09:39;;;;;;;1.85;0.50;;;;;;;;;;4214306;28;20054;-70
2022/03/11 02:11:40;;;;;;;1.05;0.60;;;;;;;;;;4215206;28;20483;-69
2022/03/11 02:13:41;;;;;;;1.30;0.63;;;;;;;;;;4215109;28;20048;-72
2022/03/11 02:15:42;;;;;;;0.85;0.50;;;;;;;;;;4214146;28;20073;-71
2022/03/11 02:17:43;;;;;;;2.15;0.63;;;;;;;;;;4214765;28;20098;-70
2022/03/11 02:19:44;;;;;;;1.27;0.60;;;;;;;;;;4215425;28;20052;-70
2022/03/11 02:21:47;;;;;;;1.85;0.63;;;;;;;;;;4215152;28;20113;-69
2022/03/11 02:23:51;;;;;;;0.95;0.50;;;;;;;;;;4215172;28;20052;-70
2022/03/11 02:25:53;;;;;;;0.80;0.50;;;;;;;;;;4215423;28;20113;-69
2022/03/11 02:27:54;;;;;;;0.60;0.60;;;;;;;;;;4214843;28;20117;-70
2022/03/11 02:29:55;;;;;;;0.85;0.63;;;;;;;;;;4215151;28;20087;-71
2022/03/11 02:31:56;;;;;;;0.82;0.60;;;;;;;;;;4214438;28;20090;-70
2022/03/11 02:33:57;;;;;;;1.48;0.68;;;;;;;;;;4214973;28;20071;-70
2022/03/11 02:35:59;;;;;;;0.85;0.50;;;;;;;;;;4213881;28;20051;-70
2022/03/11 02:38:00;;;;;;;1.25;0.63;;;;;;;;;;4214626;28;20052;-71
2022/03/11 02:40:01;;;;;;;1.15;0.65;;;;;;;;;;4196794;28;20094;-70
2022/03/11 02:42:03;;;;;;;0.70;0.60;;;;;;;;;;4214959;28;20105;-69
2022/03/11 02:44:04;;;;;;;0.80;0.60;;;;;;;;;;4214751;28;20078;-70
2022/03/11 02:46:05;;;;;;;0.52;0.43;;;;;;;;;;4214673;28;20048;-70
2022/03/11 02:48:06;;;;;;;0.93;0.57;;;;;;;;;;4214240;28;20102;-69
2022/03/11 02:50:08;;;;;;;1.00;0.45;;;;;;;;;;4214932;28;20051;-70
2022/03/11 02:52:09;;;;;;;0.82;0.50;;;;;;;;;;4214662;28;20052;-70
2022/03/11 02:54:10;;;;;;;0.82;0.52;;;;;;;;;;4196223;28;20140;-68
2022/03/11 02:56:11;;;;;;;0.70;0.55;;;;;;;;;;4196699;28;20078;-71
2022/03/11 02:58:12;;;;;;;0.40;0.40;;;;;;;;;;4213688;28;20043;-70
2022/03/11 03:00:13;;;;;;;1.00;0.70;;;;;;;;;;4214655;28;20091;-70
2022/03/11 03:02:14;;;;;;;1.00;0.52;;;;;;;;;;4214272;28;20048;-70
2022/03/11 03:04:15;;;;;;;0.57;0.43;;;;;;;;;;4214813;28;20483;-71
2022/03/11 03:06:16;;;;;;;0.50;0.50;;;;;;;;;;4196467;28;20063;-70
2022/03/11 03:08:17;;;;;;;1.27;0.75;;;;;;;;;;4214445;28;20063;-70
2022/03/11 03:10:18;;;;;;;0.90;0.50;;;;;;;;;;4214159;28;20052;-69
2022/03/11 03:12:19;;;;;;;0.82;0.60;;;;;;;;;;4212815;28;20090;-70
2022/03/11 03:14:20;;;;;;;1.25;0.47;;;;;;;;;;4214243;28;20055;-70
2022/03/11 03:16:21;;;;;;;0.70;0.50;;;;;;;;;;4214210;28;20060;-70
2022/03/11 03:18:22;;;;;;;0.43;0.40;;;;;;;;;;4213790;28;20470;-70
2022/03/11 03:20:22;;;;;;;1.02;0.60;;;;;;;;;;4214168;28;20074;-70
2022/03/11 03:22:25;;;;;;;0.90;0.50;;;;;;;;;;4214132;28;20048;-70
2022/03/11 03:24:26;;;;;;;0.88;0.50;;;;;;;;;;4214010;28;20134;-70
2022/03/11 03:26:27;;;;;;;0.68;0.50;;;;;;;;;;4214152;28;20051;-69
2022/03/11 03:28:28;;;;;;;0.60;0.60;;;;;;;;;;4214151;28;20185;-69
2022/03/11 03:30:29;;;;;;;1.15;0.40;;;;;;;;;;4213902;28;20130;-69
2022/03/11 03:32:30;;;;;;;0.60;0.47;;;;;;;;;;4213919;28;20048;-69
2022/03/11 03:34:32;;;;;;;0.70;0.55;;;;;;;;;;4214026;28;20135;-69
2022/03/11 03:36:33;;;;;;;0.88;0.43;;;;;;;;;;4212477;28;20121;-67
2022/03/11 03:38:34;;;;;;;0.73;0.73;;;;;;;;;;4195762;28;20392;-68
2022/03/11 03:40:35;;;;;;;0.80;0.70;;;;;;;;;;4200488;28;20110;-71
2022/03/11 03:42:36;;;;;;;1.10;0.50;;;;;;;;;;4197073;28;20125;-70
2022/03/11 03:44:37;;;;;;;0.50;0.45;;;;;;;;;;4197391;28;20139;-70
2022/03/11 03:46:38;;;;;;;1.05;0.50;;;;;;;;;;4196961;28;20078;-71
2022/03/11 03:48:40;;;;;;;0.93;0.60;;;;;;;;;;4196887;28;20063;-70
2022/03/11 03:50:41;;;;;;;0.55;0.32;;;;;;;;;;4196827;28;20052;-69
2022/03/11 03:52:42;;;;;;;0.75;0.52;;;;;;;;;;4196740;28;20095;-71
2022/03/11 03:54:44;;;;;;;0.40;0.40;;;;;;;;;;4196666;28;20071;-71
2022/03/11 03:56:45;;;;;;;0.50;0.43;;;;;;;;;;4178929;28;20041;-70
2022/03/11 03:58:46;;;;;;;0.63;0.52;;;;;;;;;;4210355;28;20160;-70
2022/03/11 04:00:47;;;;;;;0.82;0.50;;;;;;;;;;4212233;28;20237;-70
2022/03/11 04:02:48;;;;;;;0.70;0.52;;;;;;;;;;4213127;28;20060;-70
2022/03/11 04:04:50;;;;;;;0.73;0.57;;;;;;;;;;4213708;28;20063;-70
2022/03/11 04:06:50;;;;;;;0.50;0.45;;;;;;;;;;4213614;28;20495;-70
2022/03/11 04:08:51;;;;;;;0.80;0.52;;;;;;;;;;4212719;28;20101;-69
2022/03/11 04:10:52;;;;;;;0.85;0.63;;;;;;;;;;4213509;28;20058;-71
2022/03/11 04:12:54;;;;;;;0.70;0.55;;;;;;;;;;4211682;28;20522;-69
2022/03/11 04:14:56;;;;;;;0.68;0.50;;;;;;;;;;4212240;28;20040;-70
2022/03/11 04:16:56;;;;;;;0.40;0.40;;;;;;;;;;4211507;28;20048;-70
2022/03/11 04:18:57;;;;;;;0.68;0.50;;;;;;;;;;4194452;28;20190;-70
2022/03/11 04:20:58;;;;;;;0.65;0.52;;;;;;;;;;4213462;28;20051;-71
2022/03/11 04:22:59;;;;;;;0.45;0.35;;;;;;;;;;4212876;28;20097;-69
2022/03/11 04:25:02;;;;;;;1.00;0.60;;;;;;;;;;4213102;28;20047;-70
2022/03/11 04:27:03;;;;;;;0.52;0.30;;;;;;;;;;4178180;28;20095;-69
2022/03/11 04:29:05;;;;;;;0.80;0.50;;;;;;;;;;4213186;28;20052;-70
2022/03/11 04:31:09;;;;;;;0.73;0.50;;;;;;;;;;4213007;28;20058;-71
2022/03/11 04:33:10;;;;;;;0.73;0.43;;;;;;;;;;4212541;28;20063;-71
2022/03/11 04:35:11;;;;;;;0.57;0.52;;;;;;;;;;4213059;28;20094;-69
2022/03/11 04:37:12;;;;;;;0.60;0.45;;;;;;;;;;4201840;28;20112;-71
2022/03/11 04:39:15;;;;;;;0.45;0.32;;;;;;;;;;4211916;28;20054;-69
2022/03/11 04:41:16;;;;;;;0.60;0.40;;;;;;;;;;4213039;28;20143;-70
2022/03/11 04:43:17;;;;;;;0.52;0.40;;;;;;;;;;4212860;28;20054;-69
2022/03/11 04:45:18;;;;;;;1.02;0.60;;;;;;;;;;4211747;28;20105;-69
2022/03/11 04:47:20;;;;;;;2.05;0.40;;;;;;;;;;4212345;28;20059;-70
2022/03/11 04:49:22;;;;;;;0.38;0.35;;;;;;;;;;4213029;28;20047;-71
2022/03/11 04:51:23;;;;;;;1.15;0.50;;;;;;;;;;4212754;28;20066;-70
2022/03/11 04:53:24;;;;;;;0.60;0.40;;;;;;;;;;4212624;28;20077;-69
2022/03/11 04:55:25;;;;;;;0.47;0.30;;;;;;;;;;4212394;28;20050;-70
2022/03/11 04:57:26;;;;;;;0.65;0.40;;;;;;;;;;4212543;28;20044;-70
2022/03/11 04:59:27;;;;;;;1.17;0.45;;;;;;;;;;4212810;28;20555;-69
2022/03/11 05:01:28;;;;;;;0.50;0.40;;;;;;;;;;4212737;28;20114;-70
2022/03/11 05:03:28;;;;;;;0.80;0.50;;;;;;;;;;4212158;28;20544;-70
2022/03/11 05:05:30;;;;;;;0.60;0.50;;;;;;;;;;4212662;28;20495;-70
2022/03/11 05:07:31;;;;;;;1.30;0.50;;;;;;;;;;4212584;28;20058;-71
2022/03/11 05:09:32;;;;;;;0.60;0.40;;;;;;;;;;4212596;28;20055;-70
2022/03/11 05:11:33;;;;;;;0.63;0.40;;;;;;;;;;4212695;28;20104;-70
2022/03/11 05:13:34;;;;;;;0.88;0.50;;;;;;;;;;4212335;28;20117;-70
2022/03/11 05:15:38;;;;;;;0.95;0.57;;;;;;;;;;4212647;28;20068;-70
2022/03/11 05:17:38;;;;;;;0.57;0.40;;;;;;;;;;4212137;28;20052;-71
2022/03/11 05:19:39;;;;;;;0.65;0.50;;;;;;;;;;4212475;28;20150;-69
2022/03/11 05:21:40;;;;;;;0.98;0.60;;;;;;;;;;4211911;28;20083;-69
2022/03/11 05:23:41;;;;;;;1.50;0.60;;;;;;;;;;4212687;28;20055;-70
2022/03/11 05:25:42;;;;;;;0.52;0.40;;;;;;;;;;4212493;28;20048;-70
2022/03/11 05:27:43;;;;;;;0.70;0.32;;;;;;;;;;4212212;28;20377;-68
2022/03/11 05:29:44;;;;;;;0.60;0.60;;;;;;;;;;4212490;28;20074;-69
2022/03/11 05:31:45;;;;;;;0.65;0.32;;;;;;;;;;4210143;28;20094;-70
2022/03/11 05:33:46;;;;;;;0.85;0.70;;;;;;;;;;4194537;28;20052;-69
2022/03/11 05:35:47;;;;;;;0.60;0.50;;;;;;;;;;4212352;28;20048;-70
2022/03/11 05:37:48;;;;;;;0.40;0.30;;;;;;;;;;4212276;28;20135;-70
2022/03/11 05:39:49;;;;;;;0.70;0.55;;;;;;;;;;4212300;28;20079;-70
2022/03/11 05:41:50;;;;;;;0.80;0.40;;;;;;;;;;4194279;28;20052;-70
2022/03/11 05:43:51;;;;;;;0.82;0.52;;;;;;;;;;4194370;28;20552;-70
2022/03/11 05:45:52;;;;;;;1.15;0.68;;;;;;;;;;4212512;28;20467;-69
2022/03/11 05:47:52;;;;;;;0.50;0.40;;;;;;;;;;4211835;28;20543;-69
2022/03/11 05:49:54;;;;;;;0.40;0.40;;;;;;;;;;4208903;28;20506;-69
2022/03/11 05:51:55;;;;;;;0.60;0.50;;;;;;;;;;4204412;28;20044;-70
2022/03/11 05:53:56;;;;;;;0.80;0.68;;;;;;;;;;4194062;28;20063;-70
2022/03/11 05:55:57;;;;;;;0.88;0.65;;;;;;;;;;4210959;28;20528;-69
2022/03/11 05:57:58;;;;;;;0.50;0.40;;;;;;;;;;4212043;28;20086;-70
2022/03/11 05:59:59;;;;;;;0.35;0.30;;;;;;;;;;4200661;28;20080;-70
2022/03/11 06:01:59;;;;;;;0.63;0.40;;;;;;;;;;4206065;28;20796;-69
2022/03/11 06:04:03;;;;;;;0.85;0.60;;;;;;;;;;4210227;28;20547;-71
2022/03/11 06:06:03;;;;;;;0.80;0.50;;;;;;;;;;4210267;28;20181;-70
2022/03/11 06:08:04;;;;;;;0.28;0.28;;;;;;;;;;4210226;28;20393;-69
2022/03/11 06:10:07;;;;;;;0.60;0.45;;;;;;;;;;4192310;28;20052;-69
2022/03/11 06:12:08;;;;;;;0.77;0.43;;;;;;;;;;4210089;28;20097;-68
2022/03/11 06:14:09;;;;;;;0.90;0.55;;;;;;;;;;4209932;28;20082;-69
2022/03/11 06:16:10;;;;;;;2.55;0.80;;;;;;;;;;4192275;28;20106;-70
2022/03/11 06:18:15;;;;;;;1.90;0.70;;;;;;;;;;4209776;28;20048;-70
2022/03/11 06:20:16;;;;;;;0.45;0.40;;;;;;;;;;4210197;28;20087;-69
2022/03/11 06:22:17;;;;;;;0.80;0.55;;;;;;;;;;4209987;28;20400;-68
2022/03/11 06:24:18;;;;;;;1.65;0.50;;;;;;;;;;4192286;28;20115;-70
2022/03/11 06:26:19;;;;;;;1.30;0.70;;;;;;;;;;4210143;28;20100;-69
2022/03/11 06:28:20;;;;;;;1.15;0.63;;;;;;;;;;4210031;28;20143;-70
2022/03/11 06:30:21;;;;;;;1.20;0.60;;;;;;;;;;4209958;28;20095;-69
2022/03/11 06:32:23;;;;;;;0.77;0.60;;;;;;;;;;4192023;28;20320;-69
2022/03/11 06:34:24;;;;;;;0.75;0.60;;;;;;;;;;4212887;28;20108;-69
2022/03/11 06:36:34;;;;;;;0.68;0.60;;;;;;;;;;4212814;28;20101;-69
2022/03/11 06:38:36;;;;;;;1.05;0.68;;;;;;;;;;4213189;28;20044;-68
2022/03/11 06:40:38;;;;;;;0.98;0.60;;;;;;;;;;4212768;28;20056;-68
2022/03/11 06:42:40;;;;;;;0.77;0.73;;;;;;;;;;4208849;28;20056;-69
2022/03/11 06:44:41;;;;;;;1.20;0.55;;;;;;;;;;4196231;28;20118;-69
2022/03/11 06:46:42;;;;;;;1.60;0.95;;;;;;;;;;4196242;28;20052;-69
2022/03/11 06:48:43;;;;;;;1.17;0.70;;;;;;;;;;4197922;28;20110;-69
2022/03/11 06:50:44;;;;;;;1.17;0.70;;;;;;;;;;4204212;28;20446;-68
2022/03/11 06:52:47;;;;;;;1.50;0.70;;;;;;;;;;4191923;28;20052;-70
2022/03/11 06:54:50;;;;;;;1.65;0.73;;;;;;;;;;4187186;28;20150;-69
2022/03/11 06:56:51;;;;;;;0.75;0.60;;;;;;;;;;4192639;28;20499;-69
2022/03/11 06:58:52;;;;;;;1.02;0.88;;;;;;;;;;4194376;28;20557;-69
2022/03/11 07:00:53;;;;;;;0.88;0.60;;;;;;;;;;4188473;28;20051;-70
2022/03/11 07:02:54;;;;;;;1.67;0.65;;;;;;;;;;4179168;28;20045;-70
2022/03/11 07:04:55;;;;;;;0.88;0.57;;;;;;;;;;4178841;28;20118;-69
2022/03/11 07:06:56;;;;;;;0.98;0.75;;;;;;;;;;4177072;28;20869;-67
2022/03/11 07:08:57;;;;;;;1.58;0.68;;;;;;;;;;4180838;28;20088;-70
2022/03/11 07:10:59;;;;;;;2.88;1.00;;;;;;;;;;4186715;28;20060;-71
2022/03/11 07:13:00;;;;;;;0.95;0.60;;;;;;;;;;4191230;28;20106;-72
2022/03/11 07:15:01;;;;;;;3.35;0.90;;;;;;;;;;4188205;28;20189;-69
2022/03/11 07:17:02;;;;;;;3.17;0.90;;;;;;;;;;4188620;28;20323;-72
2022/03/11 07:19:03;;;;;;;2.63;0.90;;;;;;;;;;4185555;28;20052;-71
2022/03/11 07:21:04;;;;;;;2.47;1.10;;;;;;;;;;4185705;28;20098;-70
2022/03/11 07:23:06;;;;;;;2.17;1.00;;;;;;;;;;4186857;28;20102;-70
2022/03/11 07:25:07;;;;;;;2.45;0.90;;;;;;;;;;4185934;28;20136;-69
2022/03/11 07:27:08;;;;;;;1.70;0.70;;;;;;;;;;4188671;28;21434;-71
2022/03/11 07:29:09;;;;;;;1.17;0.90;;;;;;;;;;4181128;28;20193;-71
2022/03/11 07:31:10;;;;;;;3.10;1.00;;;;;;;;;;4181390;28;20115;-72
2022/03/11 07:33:12;;;;;;;1.73;0.90;;;;;;;;;;4181087;28;20165;-72
2022/03/11 07:35:13;;;;;;;3.30;0.90;;;;;;;;;;4184207;28;20048;-71
2022/03/11 07:37:14;;;;;;;1.67;0.85;;;;;;;;;;4187514;28;20064;-71
2022/03/11 07:39:15;;;;;;;1.38;1.17;;;;;;;;;;4184335;28;20052;-71
2022/03/11 07:41:17;;;;;;;5.15;1.00;;;;;;;;;;4185998;28;20466;-72
2022/03/11 07:43:18;;;;;;;2.22;1.00;;;;;;;;;;4181929;28;20357;-72
2022/03/11 07:45:18;;;;;;;2.92;0.90;;;;;;;;;;4187283;28;20098;-69
2022/03/11 07:47:19;;;;;;;3.28;0.98;;;;;;;;;;4185149;28;20087;-70
2022/03/11 07:49:22;;;;;;;3.15;1.10;;;;;;;;;;4180199;28;20049;-69
2022/03/11 07:51:25;;;;;;;1.77;0.95;;;;;;;;;;4182523;28;20061;-67
2022/03/11 07:53:25;;;;;;;2.40;1.00;;;;;;;;;;4179160;28;20045;-69
2022/03/11 07:55:26;;;;;;;2.03;0.90;;;;;;;;;;4182689;28;20110;-72
2022/03/11 07:57:27;;;;;;;3.70;0.80;;;;;;;;;;4182346;28;20079;-71
2022/03/11 07:59:31;;;;;;;2.88;1.20;;;;;;;;;;4177493;28;21427;-71
2022/03/11 08:01:33;;;;;;;5.95;1.00;;;;;;;;;;4182806;28;20090;-72
2022/03/11 08:03:34;;;;;;;1.73;1.00;;;;;;;;;;4173365;28;20115;-71
2022/03/11 08:05:35;;;;;;;3.92;0.90;;;;;;;;;;4178348;28;20056;-71
2022/03/11 08:07:36;;;;;;;1.83;1.40;;;;;;;;;;4178202;28;20126;-71
2022/03/11 08:09:42;;;;;;;2.85;1.15;;;;;;;;;;4176318;28;20056;-74
2022/03/11 08:11:43;;;;;;;3.88;1.30;;;;;;;;;;4183314;28;20143;-71
2022/03/11 08:13:45;;;;;;;2.72;1.35;;;;;;;;;;4157253;28;20087;-71
2022/03/11 08:15:46;;;;;;;2.03;0.85;;;;;;;;;;4182878;28;20091;-72
2022/03/11 08:17:47;;;;;;;1.55;1.27;;;;;;;;;;4170511;28;20080;-71
2022/03/11 08:19:48;;;;;;;1.75;1.13;;;;;;;;;;4182358;28;20122;-73
2022/03/11 08:21:51;;;;;;;1.95;1.15;;;;;;;;;;4175327;28;20044;-72
2022/03/11 08:23:52;;;;;;;5.00;1.20;;;;;;;;;;4172944;28;20535;-72
2022/03/11 08:25:53;;;;;;;3.20;0.90;;;;;;;;;;4179510;28;20102;-71
2022/03/11 08:27:55;;;;;;;1.52;1.23;;;;;;;;;;4179910;28;20056;-72
2022/03/11 08:29:56;;;;;;;1.42;0.90;;;;;;;;;;4177849;28;20122;-72
2022/03/11 08:31:57;;;;;;;3.17;1.15;;;;;;;;;;4178554;28;20886;-72
2022/03/11 08:33:58;;;;;;;1.50;0.80;;;;;;;;;;4183926;28;20052;-72
2022/03/11 08:35:59;;;;;;;1.50;0.98;;;;;;;;;;4177854;28;20056;-71
2022/03/11 08:38:03;;;;;;;3.00;0.90;;;;;;;;;;4145202;28;20049;-72
2022/03/11 08:40:05;;;;;;;2.22;1.00;;;;;;;;;;4178917;28;20090;-72
2022/03/11 08:42:07;;;;;;;1.23;0.80;;;;;;;;;;4182617;28;20052;-70
2022/03/11 08:44:08;;;;;;;2.70;1.05;;;;;;;;;;4175084;28;20381;-72
2022/03/11 08:46:09;;;;;;;1.30;0.88;;;;;;;;;;4164069;28;20077;-73
2022/03/11 08:48:11;;;;;;;3.20;1.25;;;;;;;;;;4160908;28;20052;-73
2022/03/11 08:50:12;;;;;;;2.97;1.10;;;;;;;;;;4178859;28;20356;-72
2022/03/11 08:52:13;;;;;;;1.73;0.93;;;;;;;;;;4179074;28;20085;-72
2022/03/11 08:54:13;;;;;;;1.88;0.70;;;;;;;;;;4165667;28;20053;-74
2022/03/11 08:56:20;;;;;;;1.63;1.00;;;;;;;;;;4182593;28;20044;-72
2022/03/11 08:58:21;;;;;;;1.33;0.90;;;;;;;;;;4172284;28;20102;-75
2022/03/11 09:00:23;;;;;;;3.13;1.40;;;;;;;;;;4160244;28;20133;-75
2022/03/11 09:02:24;;;;;;;2.38;1.05;;;;;;;;;;4173495;28;20110;-77
2022/03/11 09:04:25;;;;;;;1.58;0.80;;;;;;;;;;4154602;28;20516;-72
2022/03/11 09:06:26;;;;;;;1.63;1.10;;;;;;;;;;4170973;28;20119;-72
2022/03/11 09:08:27;;;;;;;0.90;0.77;;;;;;;;;;4152060;28;20072;-72
2022/03/11 09:10:28;;;;;;;2.67;1.15;;;;;;;;;;4175389;28;20538;-71
2022/03/11 09:12:29;;;;;;;2.17;1.20;;;;;;;;;;4177370;28;20059;-71
2022/03/11 09:14:30;;;;;;;2.97;0.95;;;;;;;;;;4192293;28;20044;-71
2022/03/11 09:16:31;;;;;;;0.93;0.70;;;;;;;;;;4171028;28;20097;-71
2022/03/11 09:18:32;;;;;;;2.38;1.00;;;;;;;;;;4176605;28;20114;-72
2022/03/11 09:20:34;;;;;;;0.80;0.80;;;;;;;;;;4181136;28;20106;-71
2022/03/11 09:22:35;;;;;;;2.40;1.10;;;;;;;;;;4177100;28;20048;-71
2022/03/11 09:24:43;;;;;;;2.25;1.10;;;;;;;;;;4160030;28;20455;-71
2022/03/11 09:26:49;;;;;;;1.38;1.00;;;;;;;;;;4177325;28;20114;-71
2022/03/11 09:28:51;;;;;;;1.52;1.00;;;;;;;;;;4178174;28;20569;-73
2022/03/11 09:30:52;;;;;;;4.28;1.17;;;;;;;;;;4178103;28;20060;-72
2022/03/11 09:32:52;;;;;;;1.20;1.00;;;;;;;;;;4159546;28;20291;-73
2022/03/11 09:34:53;;;;;;;1.17;0.90;;;;;;;;;;4172167;28;20048;-72
2022/03/11 09:36:55;;;;;;;1.60;1.10;;;;;;;;;;4175379;28;20053;-73
2022/03/11 09:38:55;;;;;;;2.15;1.20;;;;;;;;;;4176865;28;20077;-73
2022/03/11 09:40:57;;;;;;;2.13;1.23;;;;;;;;;;4176813;28;20082;-73
2022/03/11 09:42:59;;;;;;;1.70;1.17;;;;;;;;;;4177738;28;20345;-73
2022/03/11 09:45:00;;;;;;;2.83;1.30;;;;;;;;;;4178429;28;20056;-72
2022/03/11 09:47:01;;;;;;;1.73;1.02;;;;;;;;;;4175286;28;20266;-72
2022/03/11 09:49:03;;;;;;;2.55;1.48;;;;;;;;;;4177379;28;20048;-73
2022/03/11 09:51:04;;;;;;;1.85;0.80;;;;;;;;;;4178556;28;20048;-72
2022/03/11 09:53:05;;;;;;;3.22;1.20;;;;;;;;;;4156147;28;20123;-71
2022/03/11 09:55:06;;;;;;;3.00;1.23;;;;;;;;;;4176527;28;20448;-72
2022/03/11 09:57:07;;;;;;;2.38;1.25;;;;;;;;;;4159732;28;20061;-73
2022/03/11 09:59:09;;;;;;;1.42;1.02;;;;;;;;;;4176032;28;20218;-72
2022/03/11 10:01:10;;;;;;;1.35;1.10;;;;;;;;;;4179392;28;20515;-71
2022/03/11 10:03:12;;;;;;;2.65;1.50;;;;;;;;;;4161948;28;20144;-73
2022/03/11 10:05:14;;;;;;;1.58;0.90;;;;;;;;;;4179305;28;20087;-72
2022/03/11 10:07:22;;;;;;;1.30;0.90;;;;;;;;;;4177751;28;20522;-72
2022/03/11 10:09:23;;;;;;;1.20;1.10;;;;;;;;;;4176888;28;20055;-72
2022/03/11 10:11:24;;;;;;;1.88;1.00;;;;;;;;;;4179037;28;21819;-73
2022/03/11 10:13:35;;;;;;;3.33;1.45;;;;;;;;;;4180309;28;20106;-72
2022/03/11 10:15:36;;;;;;;1.55;1.10;;;;;;;;;;4176101;28;20124;-73
2022/03/11 10:17:41;;;;;;;3.90;1.10;;;;;;;;;;4177392;28;20067;-73
2022/03/11 10:19:58;;;;;;;2.47;1.13;;;;;;;;;;4180380;28;20056;-73
2022/03/11 10:21:59;;;;;;;1.58;1.17;;;;;;;;;;4177690;28;20048;-73
2022/03/11 10:24:02;;;;;;;1.63;1.10;;;;;;;;;;4176637;28;20129;-72
2022/03/11 10:26:02;;;;;;;1.92;1.02;;;;;;;;;;4179178;28;20045;-72
2022/03/11 10:28:08;;;;;;;2.60;1.23;;;;;;;;;;4163677;28;20397;-72
2022/03/11 10:30:16;;;;;;;1.50;1.15;;;;;;;;;;4176465;28;20526;-71
2022/03/11 10:32:24;;;;;;;1.95;1.00;;;;;;;;;;4181224;28;20202;-73
2022/03/11 10:34:26;;;;;;;2.00;1.40;;;;;;;;;;4162622;28;20053;-72
2022/03/11 10:36:28;;;;;;;1.15;0.90;;;;;;;;;;4180856;28;20086;-71
2022/03/11 10:38:36;;;;;;;1.20;0.95;;;;;;;;;;4179137;28;20110;-72
2022/03/11 10:40:41;;;;;;;1.48;1.17;;;;;;;;;;4182722;28;20056;-73
2022/03/11 10:42:42;;;;;;;1.48;1.10;;;;;;;;;;4180771;28;20102;-72
2022/03/11 10:44:56;;;;;;;1.20;0.93;;;;;;;;;;4178247;28;20067;-76
2022/03/11 10:47:13;;;;;;;1.10;1.00;;;;;;;;;;4174588;28;20056;-73
2022/03/11 10:49:34;;;;;;;2.67;0.93;;;;;;;;;;4176634;28;20091;-74
2022/03/11 10:51:38;;;;;;;1.70;1.02;;;;;;;;;;4181469;28;20403;-73
2022/03/11 10:53:39;;;;;;;2.63;1.00;;;;;;;;;;4184032;28;20553;-73
2022/03/11 10:55:41;;;;;;;2.53;1.23;;;;;;;;;;4165911;28;20098;-74
2022/03/11 10:57:42;;;;;;;3.00;1.17;;;;;;;;;;4180194;28;20056;-73
2022/03/11 10:59:43;;;;;;;1.63;0.90;;;;;;;;;;4197014;28;20048;-73
2022/03/11 11:01:44;;;;;;;4.03;0.82;;;;;;;;;;4172879;28;20048;-73
2022/03/11 11:03:46;;;;;;;1.27;1.10;;;;;;;;;;4190544;28;20502;-73
2022/03/11 11:05:48;;;;;;;1.88;1.13;;;;;;;;;;4194895;28;20047;-71
2022/03/11 11:07:49;;;;;;;1.38;1.17;;;;;;;;;;4190071;28;20117;-72
2022/03/11 11:09:50;;;;;;;1.98;1.13;;;;;;;;;;4179089;28;20048;-74
2022/03/11 11:11:52;;;;;;;2.35;1.25;;;;;;;;;;4161971;28;20083;-71
2022/03/11 11:13:53;;;;;;;1.52;1.15;;;;;;;;;;4194690;28;20113;-75
2022/03/11 11:15:59;;;;;;;2.80;1.25;;;;;;;;;;4159392;28;23387;-70
2022/03/11 11:18:06;;;;;;;2.92;0.93;;;;;;;;;;4191436;28;20399;-72
2022/03/11 11:20:14;;;;;;;4.93;1.35;;;;;;;;;;4179044;28;20057;-72
2022/03/11 11:22:15;;;;;;;2.13;0.88;;;;;;;;;;4177163;28;20704;-73
2022/03/11 11:24:19;;;;;;;2.88;1.20;;;;;;;;;;4180200;28;20048;-74
2022/03/11 11:26:21;;;;;;;1.45;0.88;;;;;;;;;;4194951;28;20101;-74
2022/03/11 11:28:23;;;;;;;1.33;0.98;;;;;;;;;;4198083;28;20056;-75
2022/03/11 11:30:24;;;;;;;1.55;0.95;;;;;;;;;;4180300;28;20060;-75
2022/03/11 11:32:26;;;;;;;1.35;0.95;;;;;;;;;;4186223;28;20057;-73
2022/03/11 11:34:31;;;;;;;1.33;1.02;;;;;;;;;;4181777;28;20150;-75
2022/03/11 11:36:34;;;;;;;2.90;1.10;;;;;;;;;;4186452;28;20122;-73
2022/03/11 11:38:37;;;;;;;3.75;1.02;;;;;;;;;;4180161;28;20125;-75
2022/03/11 11:40:39;;;;;;;1.77;1.10;;;;;;;;;;4195728;28;20048;-76
2022/03/11 11:42:40;;;;;;;2.08;1.00;;;;;;;;;;4180211;28;20066;-74
2022/03/11 11:44:42;;;;;;;1.63;0.98;;;;;;;;;;4166022;28;20084;-75
2022/03/11 11:47:03;;;;;;;2.33;1.05;;;;;;;;;;4184220;28;20053;-72
2022/03/11 11:49:05;;;;;;;1.27;1.08;;;;;;;;;;4201740;28;20415;-73
2022/03/11 11:51:07;;;;;;;1.73;1.10;;;;;;;;;;4176286;28;20098;-72
2022/03/11 11:53:09;;;;;;;1.45;1.08;;;;;;;;;;4183325;28;20079;-75
2022/03/11 11:55:14;;;;;;;1.55;0.90;;;;;;;;;;4194038;28;20064;-74
2022/03/11 11:57:16;;;;;;;2.60;1.00;;;;;;;;;;4191544;28;20414;-72
2022/03/11 11:59:18;;;;;;;1.98;1.27;;;;;;;;;;4195774;28;20062;-72
2022/03/11 12:01:38;;;;;;;3.13;1.10;;;;;;;;;;4162136;28;20045;-74
2022/03/11 12:03:49;;;;;;;1.33;1.13;;;;;;;;;;4174317;28;20479;-72
2022/03/11 12:05:51;;;;;;;1.80;1.10;;;;;;;;;;4161335;28;20102;-74
2022/03/11 12:07:52;;;;;;;1.52;1.15;;;;;;;;;;4178944;28;20078;-74
2022/03/11 12:09:58;;;;;;;1.83;1.08;;;;;;;;;;4180012;28;20560;-73